sensor_id;sensor_type;location;lat;lon;timestamp;pressure;altitude;pressure_sealevel;temperature;humidity
78383;BME280;67668;52.294;4.692;2023-04-01T00:03:44;99077.56;;;11.16;82.22
78383;BME280;67668;52.294;4.692;2023-04-01T00:06:15;99084.69;;;11.16;81.89
78383;BME280;67668;52.294;4.692;2023-04-01T00:08:40;99073.09;;;11.17;81.80
78383;BME280;67668;52.294;4.692;2023-04-01T00:11:06;99093.47;;;11.16;81.56
78383;BME280;67668;52.294;4.692;2023-04-01T00:13:32;99083.69;;;11.17;81.90
78383;BME280;67668;52.294;4.692;2023-04-01T00:15:58;99090.16;;;11.14;81.85
78383;BME280;67668;52.294;4.692;2023-04-01T00:18:24;99085.91;;;11.13;81.64
78383;BME280;67668;52.294;4.692;2023-04-01T00:20:51;99098.31;;;11.13;81.85
78383;BME280;67668;52.294;4.692;2023-04-01T00:23:17;99101.94;;;11.12;82.10
78383;BME280;67668;52.294;4.692;2023-04-01T00:25:44;99096.03;;;11.10;81.64
78383;BME280;67668;52.294;4.692;2023-04-01T00:28:10;99093.56;;;11.08;81.73
78383;BME280;67668;52.294;4.692;2023-04-01T00:30:37;99105.16;;;11.07;81.76
78383;BME280;67668;52.294;4.692;2023-04-01T00:33:02;99103.53;;;11.06;82.01
78383;BME280;67668;52.294;4.692;2023-04-01T00:35:28;99101.72;;;11.07;81.91
78383;BME280;67668;52.294;4.692;2023-04-01T00:37:53;99097.22;;;11.07;82.10
78383;BME280;67668;52.294;4.692;2023-04-01T00:40:49;99103.53;;;11.06;81.79
78383;BME280;67668;52.294;4.692;2023-04-01T00:43:19;99101.88;;;11.05;82.27
78383;BME280;67668;52.294;4.692;2023-04-01T00:45:46;99110.66;;;11.06;81.95
78383;BME280;67668;52.294;4.692;2023-04-01T00:48:25;99113.28;;;11.06;81.85
78383;BME280;67668;52.294;4.692;2023-04-01T00:51:14;99115.94;;;11.06;81.91
78383;BME280;67668;52.294;4.692;2023-04-01T00:53:47;99112.66;;;11.04;81.90
78383;BME280;67668;52.294;4.692;2023-04-01T00:56:16;99118.75;;;11.04;81.95
78383;BME280;67668;52.294;4.692;2023-04-01T00:58:47;99116.31;;;11.03;81.87
78383;BME280;67668;52.294;4.692;2023-04-01T01:01:13;99114.66;;;11.02;81.86
78383;BME280;67668;52.294;4.692;2023-04-01T01:03:39;99122.63;;;11.02;82.13
78383;BME280;67668;52.294;4.692;2023-04-01T01:09:06;99129.94;;;11.00;81.99
78383;BME280;67668;52.294;4.692;2023-04-01T01:12:13;99133.41;;;11.00;82.03
78383;BME280;67668;52.294;4.692;2023-04-01T01:14:53;99132.75;;;10.98;81.78
78383;BME280;67668;52.294;4.692;2023-04-01T01:17:37;99134.56;;;10.98;82.26
78383;BME280;67668;52.294;4.692;2023-04-01T01:20:29;99135.59;;;10.97;81.97
78383;BME280;67668;52.294;4.692;2023-04-01T01:23:23;99145.38;;;10.96;82.18
78383;BME280;67668;52.294;4.692;2023-04-01T01:31:50;99152.47;;;10.96;82.20
78383;BME280;67668;52.294;4.692;2023-04-01T01:34:46;99153.47;;;10.95;81.91
78383;BME280;67668;52.294;4.692;2023-04-01T01:37:19;99150.22;;;10.93;82.15
78383;BME280;67668;52.294;4.692;2023-04-01T01:39:51;99158.78;;;10.95;82.11
78383;BME280;67668;52.294;4.692;2023-04-01T01:42:20;99156.50;;;10.92;82.22
78383;BME280;67668;52.294;4.692;2023-04-01T01:44:48;99163.59;;;10.91;82.32
78383;BME280;67668;52.294;4.692;2023-04-01T01:47:16;99163.81;;;10.89;82.35
78383;BME280;67668;52.294;4.692;2023-04-01T01:49:44;99169.09;;;10.89;82.43
78383;BME280;67668;52.294;4.692;2023-04-01T01:52:11;99175.41;;;10.88;82.21
78383;BME280;67668;52.294;4.692;2023-04-01T01:54:36;99177.88;;;10.90;82.45
78383;BME280;67668;52.294;4.692;2023-04-01T01:57:07;99175.03;;;10.92;82.39
78383;BME280;67668;52.294;4.692;2023-04-01T01:59:37;99180.31;;;10.92;82.22
78383;BME280;67668;52.294;4.692;2023-04-01T02:02:04;99181.13;;;10.92;82.16
78383;BME280;67668;52.294;4.692;2023-04-01T02:04:37;99186.44;;;10.92;82.43
78383;BME280;67668;52.294;4.692;2023-04-01T02:07:08;99188.47;;;10.90;82.27
78383;BME280;67668;52.294;4.692;2023-04-01T02:09:36;99201.50;;;10.92;82.24
78383;BME280;67668;52.294;4.692;2023-04-01T02:12:09;99200.66;;;10.91;82.62
78383;BME280;67668;52.294;4.692;2023-04-01T02:14:57;99198.00;;;10.91;82.14
78383;BME280;67668;52.294;4.692;2023-04-01T02:17:27;99208.81;;;10.89;82.30
78383;BME280;67668;52.294;4.692;2023-04-01T02:20:17;99210.63;;;10.89;82.43
78383;BME280;67668;52.294;4.692;2023-04-01T02:22:48;99212.44;;;10.88;82.37
78383;BME280;67668;52.294;4.692;2023-04-01T02:25:20;99224.69;;;10.89;82.34
78383;BME280;67668;52.294;4.692;2023-04-01T02:27:47;99218.72;;;10.87;82.32
78383;BME280;67668;52.294;4.692;2023-04-01T02:30:15;99221.38;;;10.87;82.61
78383;BME280;67668;52.294;4.692;2023-04-01T02:32:42;99225.88;;;10.87;82.34
78383;BME280;67668;52.294;4.692;2023-04-01T02:35:11;99226.88;;;10.86;82.50
78383;BME280;67668;52.294;4.692;2023-04-01T02:37:39;99235.63;;;10.86;82.76
78383;BME280;67668;52.294;4.692;2023-04-01T02:40:08;99239.28;;;10.85;82.58
78383;BME280;67668;52.294;4.692;2023-04-01T02:42:34;99240.28;;;10.84;82.64
78383;BME280;67668;52.294;4.692;2023-04-01T02:45:00;99251.88;;;10.83;82.69
78383;BME280;67668;52.294;4.692;2023-04-01T02:47:26;99251.88;;;10.83;82.82
78383;BME280;67668;52.294;4.692;2023-04-01T02:49:51;99256.16;;;10.84;82.85
78383;BME280;67668;52.294;4.692;2023-04-01T02:52:26;99259.63;;;10.85;82.73
78383;BME280;67668;52.294;4.692;2023-04-01T02:54:51;99264.28;;;10.83;82.93
78383;BME280;67668;52.294;4.692;2023-04-01T02:57:16;99260.63;;;10.84;82.94
78383;BME280;67668;52.294;4.692;2023-04-01T02:59:42;99272.22;;;10.83;82.64
78383;BME280;67668;52.294;4.692;2023-04-01T03:02:07;99275.69;;;10.83;82.81
78383;BME280;67668;52.294;4.692;2023-04-01T03:04:33;99278.34;;;10.83;82.71
78383;BME280;67668;52.294;4.692;2023-04-01T03:06:58;99278.34;;;10.83;82.86
78383;BME280;67668;52.294;4.692;2023-04-01T03:09:23;99288.13;;;10.83;82.81
78383;BME280;67668;52.294;4.692;2023-04-01T03:11:50;99297.88;;;10.82;82.83
78383;BME280;67668;52.294;4.692;2023-04-01T03:14:15;99296.22;;;10.81;82.79
78383;BME280;67668;52.294;4.692;2023-04-01T03:16:40;99300.69;;;10.81;82.89
78383;BME280;67668;52.294;4.692;2023-04-01T03:19:06;99308.81;;;10.79;83.24
78383;BME280;67668;52.294;4.692;2023-04-01T03:21:31;99312.09;;;10.81;83.07
78383;BME280;67668;52.294;4.692;2023-04-01T03:23:57;99314.94;;;10.80;82.82
78383;BME280;67668;52.294;4.692;2023-04-01T03:26:22;99317.59;;;10.80;83.05
78383;BME280;67668;52.294;4.692;2023-04-01T03:28:47;99321.03;;;10.80;83.24
78383;BME280;67668;52.294;4.692;2023-04-01T03:31:13;99322.88;;;10.80;83.02
78383;BME280;67668;52.294;4.692;2023-04-01T03:33:38;99333.47;;;10.80;83.10
78383;BME280;67668;52.294;4.692;2023-04-01T03:36:04;99338.56;;;10.81;83.07
78383;BME280;67668;52.294;4.692;2023-04-01T03:38:33;99339.22;;;10.83;83.16
78383;BME280;67668;52.294;4.692;2023-04-01T03:40:58;99346.34;;;10.83;83.06
78383;BME280;67668;52.294;4.692;2023-04-01T03:43:24;99345.50;;;10.82;83.17
78383;BME280;67668;52.294;4.692;2023-04-01T03:45:50;99354.44;;;10.81;83.25
78383;BME280;67668;52.294;4.692;2023-04-01T03:48:16;99354.44;;;10.81;83.05
78383;BME280;67668;52.294;4.692;2023-04-01T03:50:42;99353.44;;;10.82;83.06
78383;BME280;67668;52.294;4.692;2023-04-01T03:53:07;99365.84;;;10.82;83.08
78383;BME280;67668;52.294;4.692;2023-04-01T03:55:33;99370.31;;;10.81;83.30
78383;BME280;67668;52.294;4.692;2023-04-01T03:57:59;99377.28;;;10.82;83.12
78383;BME280;67668;52.294;4.692;2023-04-01T04:00:24;99375.44;;;10.83;82.98
78383;BME280;67668;52.294;4.692;2023-04-01T04:02:50;99378.91;;;10.83;83.25
78383;BME280;67668;52.294;4.692;2023-04-01T04:05:15;99382.56;;;10.82;83.01
78383;BME280;67668;52.294;4.692;2023-04-01T04:07:41;99393.16;;;10.82;83.32
78383;BME280;67668;52.294;4.692;2023-04-01T04:10:06;99397.44;;;10.83;83.21
78383;BME280;67668;52.294;4.692;2023-04-01T04:12:32;99398.44;;;10.82;83.22
78383;BME280;67668;52.294;4.692;2023-04-01T04:14:57;99406.53;;;10.81;83.18
78383;BME280;67668;52.294;4.692;2023-04-01T04:17:23;99406.38;;;10.82;83.25
78383;BME280;67668;52.294;4.692;2023-04-01T04:19:48;99410.00;;;10.81;83.35
78383;BME280;67668;52.294;4.692;2023-04-01T04:22:14;99419.63;;;10.82;83.37
78383;BME280;67668;52.294;4.692;2023-04-01T04:24:39;99420.59;;;10.81;83.24
78383;BME280;67668;52.294;4.692;2023-04-01T04:27:05;99422.25;;;10.82;82.83
78383;BME280;67668;52.294;4.692;2023-04-01T04:29:30;99429.22;;;10.83;83.15
78383;BME280;67668;52.294;4.692;2023-04-01T04:31:55;99425.72;;;10.83;83.05
78383;BME280;67668;52.294;4.692;2023-04-01T04:34:21;99436.47;;;10.81;82.88
78383;BME280;67668;52.294;4.692;2023-04-01T04:36:47;99429.53;;;10.80;83.10
78383;BME280;67668;52.294;4.692;2023-04-01T04:39:13;99441.13;;;10.79;82.98
78383;BME280;67668;52.294;4.692;2023-04-01T04:41:38;99449.09;;;10.79;83.20
78383;BME280;67668;52.294;4.692;2023-04-01T04:44:04;99449.91;;;10.80;82.92
78383;BME280;67668;52.294;4.692;2023-04-01T04:46:30;99454.38;;;10.79;83.04
78383;BME280;67668;52.294;4.692;2023-04-01T04:48:55;99460.50;;;10.80;83.33
78383;BME280;67668;52.294;4.692;2023-04-01T04:51:22;99458.00;;;10.78;83.15
78383;BME280;67668;52.294;4.692;2023-04-01T04:53:47;99469.59;;;10.77;83.19
78383;BME280;67668;52.294;4.692;2023-04-01T04:56:13;99473.25;;;10.76;83.21
78383;BME280;67668;52.294;4.692;2023-04-01T04:58:38;99479.53;;;10.75;83.15
78383;BME280;67668;52.294;4.692;2023-04-01T05:01:12;99488.47;;;10.74;83.21
78383;BME280;67668;52.294;4.692;2023-04-01T05:03:38;99487.47;;;10.75;83.16
78383;BME280;67668;52.294;4.692;2023-04-01T05:06:04;99487.63;;;10.74;83.07
78383;BME280;67668;52.294;4.692;2023-04-01T05:08:31;99496.41;;;10.74;83.34
78383;BME280;67668;52.294;4.692;2023-04-01T05:10:58;99496.41;;;10.74;83.11
78383;BME280;67668;52.294;4.692;2023-04-01T05:13:24;99506.00;;;10.75;83.38
78383;BME280;67668;52.294;4.692;2023-04-01T05:15:49;99502.53;;;10.75;83.08
78383;BME280;67668;52.294;4.692;2023-04-01T05:18:15;99507.81;;;10.75;83.30
78383;BME280;67668;52.294;4.692;2023-04-01T05:20:49;99507.66;;;10.76;83.28
78383;BME280;67668;52.294;4.692;2023-04-01T05:23:15;99516.44;;;10.77;83.11
78383;BME280;67668;52.294;4.692;2023-04-01T05:25:41;99521.72;;;10.77;83.00
78383;BME280;67668;52.294;4.692;2023-04-01T05:28:07;99520.06;;;10.76;83.01
78383;BME280;67668;52.294;4.692;2023-04-01T05:30:32;99522.88;;;10.74;83.02
78383;BME280;67668;52.294;4.692;2023-04-01T05:32:58;99535.47;;;10.72;83.11
78383;BME280;67668;52.294;4.692;2023-04-01T05:35:23;99527.69;;;10.71;83.10
78383;BME280;67668;52.294;4.692;2023-04-01T05:37:48;99543.75;;;10.69;83.14
78383;BME280;67668;52.294;4.692;2023-04-01T05:40:14;99540.28;;;10.69;83.27
78383;BME280;67668;52.294;4.692;2023-04-01T05:42:39;99546.75;;;10.66;83.13
78383;BME280;67668;52.294;4.692;2023-04-01T05:45:05;99557.34;;;10.66;83.28
78383;BME280;67668;52.294;4.692;2023-04-01T05:47:31;99556.66;;;10.64;83.22
78383;BME280;67668;52.294;4.692;2023-04-01T05:49:56;99564.44;;;10.66;83.19
78383;BME280;67668;52.294;4.692;2023-04-01T05:52:22;99567.25;;;10.64;83.35
78383;BME280;67668;52.294;4.692;2023-04-01T05:54:47;99565.44;;;10.65;83.12
78383;BME280;67668;52.294;4.692;2023-04-01T05:57:12;99569.09;;;10.64;83.26
78383;BME280;67668;52.294;4.692;2023-04-01T05:59:38;99571.56;;;10.65;83.27
78383;BME280;67668;52.294;4.692;2023-04-01T06:02:03;99571.56;;;10.65;83.27
78383;BME280;67668;52.294;4.692;2023-04-01T06:04:35;99576.84;;;10.65;83.07
78383;BME280;67668;52.294;4.692;2023-04-01T06:07:10;99580.47;;;10.64;83.42
78383;BME280;67668;52.294;4.692;2023-04-01T06:09:36;99588.06;;;10.67;83.25
78383;BME280;67668;52.294;4.692;2023-04-01T06:20:03;99590.72;;;10.67;83.21
78383;BME280;67668;52.294;4.692;2023-04-01T06:25:51;99607.41;;;10.68;83.09
78383;BME280;67668;52.294;4.692;2023-04-01T06:39:41;99633.03;;;10.67;82.98
78383;BME280;67668;52.294;4.692;2023-04-01T06:42:59;99631.41;;;10.66;83.00
78383;BME280;67668;52.294;4.692;2023-04-01T06:53:39;99657.69;;;10.68;83.31
78383;BME280;67668;52.294;4.692;2023-04-01T06:56:10;99658.38;;;10.70;83.27
78383;BME280;67668;52.294;4.692;2023-04-01T06:58:48;99668.13;;;10.69;83.25
78383;BME280;67668;52.294;4.692;2023-04-01T07:01:35;99661.00;;;10.70;83.32
78383;BME280;67668;52.294;4.692;2023-04-01T07:04:11;99661.00;;;10.70;83.30
78383;BME280;67668;52.294;4.692;2023-04-01T07:06:52;99682.00;;;10.71;83.36
78383;BME280;67668;52.294;4.692;2023-04-01T07:09:21;99682.00;;;10.71;83.43
78383;BME280;67668;52.294;4.692;2023-04-01T07:11:50;99687.28;;;10.71;83.38
78383;BME280;67668;52.294;4.692;2023-04-01T07:14:24;99689.94;;;10.71;83.50
78383;BME280;67668;52.294;4.692;2023-04-01T07:17:04;99702.00;;;10.74;83.36
78383;BME280;67668;52.294;4.692;2023-04-01T07:19:39;99699.19;;;10.75;83.24
78383;BME280;67668;52.294;4.692;2023-04-01T07:24:48;99705.94;;;10.78;83.23
78383;BME280;67668;52.294;4.692;2023-04-01T07:27:14;99709.44;;;10.78;83.24
78383;BME280;67668;52.294;4.692;2023-04-01T07:29:40;99710.25;;;10.79;83.22
78383;BME280;67668;52.294;4.692;2023-04-01T07:34:55;99724.97;;;10.81;83.00
78383;BME280;67668;52.294;4.692;2023-04-01T07:37:42;99726.63;;;10.82;82.94
78383;BME280;67668;52.294;4.692;2023-04-01T07:43:14;99727.44;;;10.83;83.06
78383;BME280;67668;52.294;4.692;2023-04-01T07:48:31;99737.03;;;10.84;82.88
78383;BME280;67668;52.294;4.692;2023-04-01T07:51:21;99732.75;;;10.83;83.01
78383;BME280;67668;52.294;4.692;2023-04-01T07:54:00;99739.50;;;10.85;82.91
78383;BME280;67668;52.294;4.692;2023-04-01T07:59:30;99755.41;;;10.85;83.39
78383;BME280;67668;52.294;4.692;2023-04-01T08:07:44;99766.63;;;10.87;83.21
78383;BME280;67668;52.294;4.692;2023-04-01T08:10:18;99762.00;;;10.89;83.10
78383;BME280;67668;52.294;4.692;2023-04-01T08:15:49;99775.88;;;10.92;83.22
78383;BME280;67668;52.294;4.692;2023-04-01T08:21:05;99779.84;;;10.96;82.78
78383;BME280;67668;52.294;4.692;2023-04-01T08:23:47;99779.84;;;10.96;82.93
78383;BME280;67668;52.294;4.692;2023-04-01T08:26:34;99789.28;;;10.98;82.86
78383;BME280;67668;52.294;4.692;2023-04-01T08:29:10;99791.75;;;11.00;82.81
78383;BME280;67668;52.294;4.692;2023-04-01T08:31:54;99792.59;;;11.00;83.04
78383;BME280;67668;52.294;4.692;2023-04-01T08:34:26;99802.00;;;11.03;83.14
78383;BME280;67668;52.294;4.692;2023-04-01T08:37:00;99800.84;;;11.05;83.17
78383;BME280;67668;52.294;4.692;2023-04-01T08:39:37;99802.50;;;11.06;82.94
78383;BME280;67668;52.294;4.692;2023-04-01T08:45:09;99809.09;;;11.10;82.74
78383;BME280;67668;52.294;4.692;2023-04-01T08:53:22;99823.47;;;11.16;82.71
78383;BME280;67668;52.294;4.692;2023-04-01T09:10:28;99848.78;;;11.26;82.67
78383;BME280;67668;52.294;4.692;2023-04-01T09:15:55;99855.56;;;11.29;82.46
78383;BME280;67668;52.294;4.692;2023-04-01T09:24:23;99858.50;;;11.34;82.57
78383;BME280;67668;52.294;4.692;2023-04-01T09:30:41;99857.53;;;11.35;82.32
78383;BME280;67668;52.294;4.692;2023-04-01T09:41:03;99879.84;;;11.40;82.46
78383;BME280;67668;52.294;4.692;2023-04-01T09:51:22;99885.13;;;11.49;82.15
78383;BME280;67668;52.294;4.692;2023-04-01T10:08:14;99912.06;;;11.60;82.01
78383;BME280;67668;52.294;4.692;2023-04-01T10:13:46;99918.69;;;11.64;81.73
78383;BME280;67668;52.294;4.692;2023-04-01T10:21:59;99922.66;;;11.68;81.98
78383;BME280;67668;52.294;4.692;2023-04-01T10:27:33;99925.00;;;11.71;81.98
78383;BME280;67668;52.294;4.692;2023-04-01T10:33:16;99932.59;;;11.74;81.92
78383;BME280;67668;52.294;4.692;2023-04-01T10:41:11;99927.97;;;11.76;81.87
78383;BME280;67668;52.294;4.692;2023-04-01T10:49:10;99939.88;;;11.80;81.75
78383;BME280;67668;52.294;4.692;2023-04-01T10:52:33;99944.19;;;11.81;81.74
78383;BME280;67668;52.294;4.692;2023-04-01T10:58:21;99948.31;;;11.84;82.12
78383;BME280;67668;52.294;4.692;2023-04-01T11:17:53;99965.31;;;11.98;81.56
78383;BME280;67668;52.294;4.692;2023-04-01T11:23:46;99968.94;;;12.05;82.42
78383;BME280;67668;52.294;4.692;2023-04-01T11:26:32;99968.59;;;12.08;82.52
78383;BME280;67668;52.294;4.692;2023-04-01T11:29:22;99973.56;;;12.11;81.53
78383;BME280;67668;52.294;4.692;2023-04-01T11:38:06;99987.09;;;12.24;81.37
78383;BME280;67668;52.294;4.692;2023-04-01T11:43:32;99990.34;;;12.34;82.08
78383;BME280;67668;52.294;4.692;2023-04-01T11:46:19;99996.78;;;12.39;82.50
78383;BME280;67668;52.294;4.692;2023-04-01T11:48:57;99995.44;;;12.43;82.12
78383;BME280;67668;52.294;4.692;2023-04-01T11:51:31;100004.56;;;12.49;82.11
78383;BME280;67668;52.294;4.692;2023-04-01T11:54:27;99998.19;;;12.58;82.80
78383;BME280;67668;52.294;4.692;2023-04-01T11:57:18;99996.66;;;12.64;81.41
78383;BME280;67668;52.294;4.692;2023-04-01T12:08:54;100024.75;;;12.81;79.54
78383;BME280;67668;52.294;4.692;2023-04-01T12:14:20;100026.06;;;12.85;79.77
78383;BME280;67668;52.294;4.692;2023-04-01T12:19:32;100036.81;;;12.91;79.44
78383;BME280;67668;52.294;4.692;2023-04-01T12:22:19;100038.63;;;12.91;79.57
78383;BME280;67668;52.294;4.692;2023-04-01T12:27:42;100049.91;;;12.93;79.44
78383;BME280;67668;52.294;4.692;2023-04-01T12:30:19;100053.22;;;12.95;78.74
78383;BME280;67668;52.294;4.692;2023-04-01T12:35:47;100055.69;;;12.96;78.93
78383;BME280;67668;52.294;4.692;2023-04-01T12:41:01;100062.31;;;13.01;79.15
78383;BME280;67668;52.294;4.692;2023-04-01T12:43:52;100065.16;;;12.99;78.79
78383;BME280;67668;52.294;4.692;2023-04-01T12:49:25;100078.44;;;12.99;79.17
78383;BME280;67668;52.294;4.692;2023-04-01T12:52:12;100078.44;;;12.99;78.85
78383;BME280;67668;52.294;4.692;2023-04-01T12:57:46;100086.22;;;13.01;79.09
78383;BME280;67668;52.294;4.692;2023-04-01T13:09:30;100101.44;;;13.07;79.48
78383;BME280;67668;52.294;4.692;2023-04-01T13:24:02;100123.41;;;13.09;78.97
78383;BME280;67668;52.294;4.692;2023-04-01T13:27:05;100139.34;;;13.09;79.27
78383;BME280;67668;52.294;4.692;2023-04-01T13:29:40;100138.47;;;13.08;79.07
78383;BME280;67668;52.294;4.692;2023-04-01T13:32:12;100144.66;;;13.09;79.10
78383;BME280;67668;52.294;4.692;2023-04-01T13:40:43;100150.94;;;13.08;79.42
78383;BME280;67668;52.294;4.692;2023-04-01T13:42:54;100156.25;;;13.08;79.10
78383;BME280;67668;52.294;4.692;2023-04-01T13:48:48;100155.28;;;13.09;79.43
78383;BME280;67668;52.294;4.692;2023-04-01T13:51:22;100151.75;;;13.08;79.11
78383;BME280;67668;52.294;4.692;2023-04-01T13:54:32;100154.41;;;13.08;79.33
78383;BME280;67668;52.294;4.692;2023-04-01T13:57:35;100162.22;;;13.10;79.26
78383;BME280;67668;52.294;4.692;2023-04-01T14:00:33;100163.91;;;13.11;79.29
78383;BME280;67668;52.294;4.692;2023-04-01T14:03:20;100176.19;;;13.12;78.96
78383;BME280;67668;52.294;4.692;2023-04-01T14:08:33;100184.16;;;13.12;79.22
78383;BME280;67668;52.294;4.692;2023-04-01T14:11:25;100188.44;;;13.13;79.06
78383;BME280;67668;52.294;4.692;2023-04-01T14:14:52;100203.41;;;13.14;78.95
78383;BME280;67668;52.294;4.692;2023-04-01T14:30:36;100237.09;;;13.13;78.90
78383;BME280;67668;52.294;4.692;2023-04-01T14:33:25;100233.81;;;13.11;78.80
78383;BME280;67668;52.294;4.692;2023-04-01T14:38:59;100239.28;;;13.10;79.39
78383;BME280;67668;52.294;4.692;2023-04-01T14:41:48;100250.75;;;13.10;79.12
78383;BME280;67668;52.294;4.692;2023-04-01T14:49:52;100266.88;;;13.09;78.85
78383;BME280;67668;52.294;4.692;2023-04-01T14:52:24;100280.16;;;13.09;79.34
78383;BME280;67668;52.294;4.692;2023-04-01T14:54:52;100273.28;;;13.06;78.89
78383;BME280;67668;52.294;4.692;2023-04-01T14:57:27;100284.44;;;13.02;78.98
78383;BME280;67668;52.294;4.692;2023-04-01T15:18:34;100312.69;;;12.94;79.02
78383;BME280;67668;52.294;4.692;2023-04-01T15:24:00;100325.63;;;12.89;78.39
78383;BME280;67668;52.294;4.692;2023-04-01T15:26:42;100327.00;;;12.85;78.59
78383;BME280;67668;52.294;4.692;2023-04-01T15:32:17;100338.13;;;12.81;78.24
78383;BME280;67668;52.294;4.692;2023-04-01T15:41:03;100370.66;;;12.75;78.71
78383;BME280;67668;52.294;4.692;2023-04-01T15:46:21;100379.94;;;12.71;78.93
78383;BME280;67668;52.294;4.692;2023-04-01T15:56:48;100396.53;;;12.65;78.76
78383;BME280;67668;52.294;4.692;2023-04-01T16:11:18;100427.22;;;12.51;78.39
78383;BME280;67668;52.294;4.692;2023-04-01T16:16:46;100426.72;;;12.48;78.70
78383;BME280;67668;52.294;4.692;2023-04-01T16:19:33;100434.88;;;12.46;78.87
78383;BME280;67668;52.294;4.692;2023-04-01T16:25:01;100445.63;;;12.44;78.75
78383;BME280;67668;52.294;4.692;2023-04-01T16:27:44;100447.78;;;12.41;78.37
78383;BME280;67668;52.294;4.692;2023-04-01T16:30:35;100448.09;;;12.38;78.20
78383;BME280;67668;52.294;4.692;2023-04-01T16:33:13;100459.06;;;12.35;77.96
78383;BME280;67668;52.294;4.692;2023-04-01T16:35:58;100464.69;;;12.32;78.49
78383;BME280;67668;52.294;4.692;2023-04-01T16:38:47;100465.84;;;12.29;77.86
78383;BME280;67668;52.294;4.692;2023-04-01T16:41:25;100470.66;;;12.26;78.60
78383;BME280;67668;52.294;4.692;2023-04-01T16:44:19;100493.19;;;12.22;78.39
78383;BME280;67668;52.294;4.692;2023-04-01T16:47:06;100488.03;;;12.20;78.28
78383;BME280;67668;52.294;4.692;2023-04-01T16:52:15;100498.13;;;12.17;78.05
78383;BME280;67668;52.294;4.692;2023-04-01T16:54:45;100505.28;;;12.16;78.76
78383;BME280;67668;52.294;4.692;2023-04-01T16:57:23;100516.03;;;12.15;78.83
78383;BME280;67668;52.294;4.692;2023-04-01T17:02:28;100520.00;;;12.11;78.01
78383;BME280;67668;52.294;4.692;2023-04-01T17:05:08;100529.56;;;12.04;77.73
78383;BME280;67668;52.294;4.692;2023-04-01T17:07:44;100533.22;;;12.03;78.47
78383;BME280;67668;52.294;4.692;2023-04-01T17:10:22;100543.16;;;12.01;78.24
78383;BME280;67668;52.294;4.692;2023-04-01T17:13:13;100552.13;;;12.00;78.20
78383;BME280;67668;52.294;4.692;2023-04-01T17:18:48;100555.38;;;11.93;78.25
78383;BME280;67668;52.294;4.692;2023-04-01T17:21:23;100558.19;;;11.92;78.27
78383;BME280;67668;52.294;4.692;2023-04-01T17:23:52;100564.47;;;11.91;78.36
78383;BME280;67668;52.294;4.692;2023-04-01T17:26:31;100563.97;;;11.87;78.42
78383;BME280;67668;52.294;4.692;2023-04-01T17:33:03;100587.31;;;11.84;78.90
78383;BME280;67668;52.294;4.692;2023-04-01T17:35:36;100606.19;;;11.81;78.37
78383;BME280;67668;52.294;4.692;2023-04-01T17:40:44;100611.13;;;11.76;79.38
78383;BME280;67668;52.294;4.692;2023-04-01T17:43:24;100631.50;;;11.75;79.15
78383;BME280;67668;52.294;4.692;2023-04-01T17:45:56;100636.09;;;11.73;78.64
78383;BME280;67668;52.294;4.692;2023-04-01T17:59:35;100655.56;;;11.64;78.83
78383;BME280;67668;52.294;4.692;2023-04-01T18:04:58;100673.75;;;11.59;78.71
78383;BME280;67668;52.294;4.692;2023-04-01T18:07:48;100686.31;;;11.57;78.61
78383;BME280;67668;52.294;4.692;2023-04-01T18:10:33;100683.97;;;11.54;78.66
78383;BME280;67668;52.294;4.692;2023-04-01T18:18:43;100705.34;;;11.53;79.23
78383;BME280;67668;52.294;4.692;2023-04-01T18:24:35;100725.31;;;11.47;78.18
78383;BME280;67668;52.294;4.692;2023-04-01T18:27:17;100731.63;;;11.46;78.22
78383;BME280;67668;52.294;4.692;2023-04-01T18:29:51;100733.72;;;11.43;78.32
78383;BME280;67668;52.294;4.692;2023-04-01T18:32:26;100738.50;;;11.39;77.94
78383;BME280;67668;52.294;4.692;2023-04-01T18:37:53;100762.63;;;11.36;78.34
78383;BME280;67668;52.294;4.692;2023-04-01T18:40:32;100765.59;;;11.33;77.83
78383;BME280;67668;52.294;4.692;2023-04-01T18:43:10;100771.19;;;11.30;78.04
78383;BME280;67668;52.294;4.692;2023-04-01T18:45:43;100772.16;;;11.29;78.61
78383;BME280;67668;52.294;4.692;2023-04-01T18:48:40;100778.06;;;11.23;78.48
78383;BME280;67668;52.294;4.692;2023-04-01T18:51:26;100801.59;;;11.26;78.82
78383;BME280;67668;52.294;4.692;2023-04-01T18:54:13;100801.59;;;11.26;78.40
78383;BME280;67668;52.294;4.692;2023-04-01T18:56:43;100817.78;;;11.23;77.78
78383;BME280;67668;52.294;4.692;2023-04-01T18:59:29;100812.91;;;11.18;77.83
78383;BME280;67668;52.294;4.692;2023-04-01T19:02:08;100820.31;;;11.15;77.78
78383;BME280;67668;52.294;4.692;2023-04-01T19:05:09;100826.88;;;11.11;77.99
78383;BME280;67668;52.294;4.692;2023-04-01T19:07:47;100839.75;;;11.06;77.96
78383;BME280;67668;52.294;4.692;2023-04-01T19:10:17;100839.03;;;11.04;78.22
78383;BME280;67668;52.294;4.692;2023-04-01T19:13:03;100847.28;;;11.01;77.81
78383;BME280;67668;52.294;4.692;2023-04-01T19:16:13;100857.31;;;10.97;77.98
78383;BME280;67668;52.294;4.692;2023-04-01T19:19:34;100860.97;;;10.96;78.57
78383;BME280;67668;52.294;4.692;2023-04-01T19:25:12;100871.00;;;10.93;78.55
78383;BME280;67668;52.294;4.692;2023-04-01T19:27:51;100881.88;;;10.89;78.05
78383;BME280;67668;52.294;4.692;2023-04-01T19:31:02;100889.09;;;10.87;78.36
78383;BME280;67668;52.294;4.692;2023-04-01T19:33:52;100890.09;;;10.86;78.39
78383;BME280;67668;52.294;4.692;2023-04-01T19:39:33;100904.72;;;10.81;78.25
78383;BME280;67668;52.294;4.692;2023-04-01T19:47:44;100922.88;;;10.76;79.01
78383;BME280;67668;52.294;4.692;2023-04-01T19:50:34;100924.66;;;10.75;78.63
78383;BME280;67668;52.294;4.692;2023-04-01T19:53:20;100933.56;;;10.74;78.30
78383;BME280;67668;52.294;4.692;2023-04-01T19:58:47;100938.19;;;10.72;77.99
78383;BME280;67668;52.294;4.692;2023-04-01T20:01:22;100943.63;;;10.71;77.78
78383;BME280;67668;52.294;4.692;2023-04-01T20:03:57;100948.34;;;10.67;78.47